sensor_id;sensor_type;location;lat;lon;timestamp;temperature;humidity
23815;DHT22;12088;53.078;8.720;2022-09-21T00:00:37;6.50;99.90
23815;DHT22;12088;53.078;8.720;2022-09-21T00:03:03;6.50;99.90
23815;DHT22;12088;53.078;8.720;2022-09-21T00:05:28;6.60;99.90
23815;DHT22;12088;53.078;8.720;2022-09-21T00:07:54;6.60;99.90
23815;DHT22;12088;53.078;8.720;2022-09-21T00:10:20;6.70;99.90
23815;DHT22;12088;53.078;8.720;2022-09-21T00:12:46;6.70;99.90
23815;DHT22;12088;53.078;8.720;2022-09-21T00:15:14;6.70;99.90
23815;DHT22;12088;53.078;8.720;2022-09-21T00:17:40;6.70;99.90
23815;DHT22;12088;53.078;8.720;2022-09-21T00:20:05;6.70;99.90
23815;DHT22;12088;53.078;8.720;2022-09-21T00:22:32;6.70;99.90
23815;DHT22;12088;53.078;8.720;2022-09-21T00:24:57;6.70;99.90
23815;DHT22;12088;53.078;8.720;2022-09-21T00:27:23;6.60;99.90
23815;DHT22;12088;53.078;8.720;2022-09-21T00:29:54;6.70;99.90
23815;DHT22;12088;53.078;8.720;2022-09-21T00:32:20;6.70;99.90
23815;DHT22;12088;53.078;8.720;2022-09-21T00:34:46;6.60;99.90
23815;DHT22;12088;53.078;8.720;2022-09-21T00:37:11;6.50;99.90
23815;DHT22;12088;53.078;8.720;2022-09-21T00:39:37;6.60;99.90
23815;DHT22;12088;53.078;8.720;2022-09-21T00:42:17;6.60;99.90
23815;DHT22;12088;53.078;8.720;2022-09-21T00:44:43;6.60;99.90
23815;DHT22;12088;53.078;8.720;2022-09-21T00:47:14;6.60;99.90
23815;DHT22;12088;53.078;8.720;2022-09-21T00:49:42;6.60;99.90
23815;DHT22;12088;53.078;8.720;2022-09-21T00:52:10;6.60;99.90
23815;DHT22;12088;53.078;8.720;2022-09-21T00:54:44;6.50;99.90
23815;DHT22;12088;53.078;8.720;2022-09-21T00:57:11;6.50;99.90
23815;DHT22;12088;53.078;8.720;2022-09-21T00:59:38;6.40;99.90
23815;DHT22;12088;53.078;8.720;2022-09-21T01:02:05;6.20;99.90
23815;DHT22;12088;53.078;8.720;2022-09-21T01:04:31;6.20;99.90
23815;DHT22;12088;53.078;8.720;2022-09-21T01:06:59;6.10;99.90
23815;DHT22;12088;53.078;8.720;2022-09-21T01:09:26;6.10;99.90
23815;DHT22;12088;53.078;8.720;2022-09-21T01:12:03;6.20;99.90
23815;DHT22;12088;53.078;8.720;2022-09-21T01:14:52;6.20;99.90
23815;DHT22;12088;53.078;8.720;2022-09-21T01:17:45;6.30;99.90
23815;DHT22;12088;53.078;8.720;2022-09-21T01:28:55;6.10;99.90
23815;DHT22;12088;53.078;8.720;2022-09-21T01:32:00;6.10;99.90
23815;DHT22;12088;53.078;8.720;2022-09-21T01:34:35;6.10;99.90
23815;DHT22;12088;53.078;8.720;2022-09-21T01:37:07;6.00;99.90
23815;DHT22;12088;53.078;8.720;2022-09-21T01:39:34;6.00;99.90
23815;DHT22;12088;53.078;8.720;2022-09-21T01:42:02;6.00;99.90
23815;DHT22;12088;53.078;8.720;2022-09-21T01:44:30;6.00;99.90
23815;DHT22;12088;53.078;8.720;2022-09-21T01:46:59;6.00;99.90
23815;DHT22;12088;53.078;8.720;2022-09-21T01:49:30;6.00;99.90
23815;DHT22;12088;53.078;8.720;2022-09-21T01:52:04;5.90;99.90
23815;DHT22;12088;53.078;8.720;2022-09-21T01:54:39;5.90;99.90
23815;DHT22;12088;53.078;8.720;2022-09-21T01:57:33;5.90;99.90
23815;DHT22;12088;53.078;8.720;2022-09-21T02:00:00;5.90;99.90
23815;DHT22;12088;53.078;8.720;2022-09-21T02:02:46;5.90;99.90
23815;DHT22;12088;53.078;8.720;2022-09-21T02:05:17;5.90;99.90
23815;DHT22;12088;53.078;8.720;2022-09-21T02:07:43;5.90;99.90
23815;DHT22;12088;53.078;8.720;2022-09-21T02:10:14;5.90;99.90
23815;DHT22;12088;53.078;8.720;2022-09-21T02:12:42;5.90;99.90
23815;DHT22;12088;53.078;8.720;2022-09-21T02:15:08;5.90;99.90
23815;DHT22;12088;53.078;8.720;2022-09-21T02:17:59;5.90;99.90
23815;DHT22;12088;53.078;8.720;2022-09-21T02:20:37;5.80;99.90
23815;DHT22;12088;53.078;8.720;2022-09-21T02:23:10;5.70;99.90
23815;DHT22;12088;53.078;8.720;2022-09-21T02:30:59;5.60;99.90
23815;DHT22;12088;53.078;8.720;2022-09-21T02:33:33;5.60;99.90
23815;DHT22;12088;53.078;8.720;2022-09-21T02:36:11;5.60;99.90
23815;DHT22;12088;53.078;8.720;2022-09-21T02:38:52;5.60;99.90
23815;DHT22;12088;53.078;8.720;2022-09-21T02:41:24;5.50;99.90
23815;DHT22;12088;53.078;8.720;2022-09-21T02:44:02;5.50;99.90
23815;DHT22;12088;53.078;8.720;2022-09-21T02:46:36;5.50;99.90
23815;DHT22;12088;53.078;8.720;2022-09-21T02:49:09;5.50;99.90
23815;DHT22;12088;53.078;8.720;2022-09-21T02:51:43;5.50;99.90
23815;DHT22;12088;53.078;8.720;2022-09-21T02:54:13;5.50;99.90
23815;DHT22;12088;53.078;8.720;2022-09-21T02:56:41;5.50;99.90
23815;DHT22;12088;53.078;8.720;2022-09-21T02:59:09;5.60;99.90
23815;DHT22;12088;53.078;8.720;2022-09-21T03:01:35;5.60;99.90
23815;DHT22;12088;53.078;8.720;2022-09-21T03:04:00;5.60;99.90
23815;DHT22;12088;53.078;8.720;2022-09-21T03:06:26;5.60;99.90
23815;DHT22;12088;53.078;8.720;2022-09-21T03:08:52;5.50;99.90
23815;DHT22;12088;53.078;8.720;2022-09-21T03:11:18;5.60;99.90
23815;DHT22;12088;53.078;8.720;2022-09-21T03:13:44;5.50;99.90
23815;DHT22;12088;53.078;8.720;2022-09-21T03:16:12;5.50;99.90
23815;DHT22;12088;53.078;8.720;2022-09-21T03:18:38;5.50;99.90
23815;DHT22;12088;53.078;8.720;2022-09-21T03:21:04;5.50;99.90
23815;DHT22;12088;53.078;8.720;2022-09-21T03:23:30;5.50;99.90
23815;DHT22;12088;53.078;8.720;2022-09-21T03:25:55;5.60;99.90
23815;DHT22;12088;53.078;8.720;2022-09-21T03:28:21;5.60;99.90
23815;DHT22;12088;53.078;8.720;2022-09-21T03:30:48;5.60;99.90
23815;DHT22;12088;53.078;8.720;2022-09-21T03:33:14;5.60;99.90
23815;DHT22;12088;53.078;8.720;2022-09-21T03:35:40;5.60;99.90
23815;DHT22;12088;53.078;8.720;2022-09-21T03:38:06;5.60;99.90
23815;DHT22;12088;53.078;8.720;2022-09-21T03:40:32;5.60;99.90
23815;DHT22;12088;53.078;8.720;2022-09-21T03:42:58;5.60;99.90
23815;DHT22;12088;53.078;8.720;2022-09-21T03:45:23;5.40;99.90
23815;DHT22;12088;53.078;8.720;2022-09-21T03:47:54;5.30;99.90
23815;DHT22;12088;53.078;8.720;2022-09-21T03:50:21;5.30;99.90
23815;DHT22;12088;53.078;8.720;2022-09-21T03:52:46;5.30;99.90
23815;DHT22;12088;53.078;8.720;2022-09-21T03:55:12;5.20;99.90
23815;DHT22;12088;53.078;8.720;2022-09-21T03:57:37;5.20;99.90
23815;DHT22;12088;53.078;8.720;2022-09-21T04:00:05;5.10;99.90
23815;DHT22;12088;53.078;8.720;2022-09-21T04:02:32;5.20;99.90
23815;DHT22;12088;53.078;8.720;2022-09-21T04:04:57;5.20;99.90
23815;DHT22;12088;53.078;8.720;2022-09-21T04:07:23;5.30;99.90
23815;DHT22;12088;53.078;8.720;2022-09-21T04:09:48;5.30;99.90
23815;DHT22;12088;53.078;8.720;2022-09-21T04:12:14;5.30;99.90
23815;DHT22;12088;53.078;8.720;2022-09-21T04:14:39;5.30;99.90
23815;DHT22;12088;53.078;8.720;2022-09-21T04:17:05;5.30;99.90
23815;DHT22;12088;53.078;8.720;2022-09-21T04:19:30;5.30;99.90
23815;DHT22;12088;53.078;8.720;2022-09-21T04:21:56;5.20;99.90
23815;DHT22;12088;53.078;8.720;2022-09-21T04:24:22;5.20;99.90
23815;DHT22;12088;53.078;8.720;2022-09-21T04:26:48;5.20;99.90
23815;DHT22;12088;53.078;8.720;2022-09-21T04:29:14;5.20;99.90
23815;DHT22;12088;53.078;8.720;2022-09-21T04:31:40;5.20;99.90
23815;DHT22;12088;53.078;8.720;2022-09-21T04:34:06;5.40;99.90
23815;DHT22;12088;53.078;8.720;2022-09-21T04:36:33;5.40;99.90
23815;DHT22;12088;53.078;8.720;2022-09-21T04:39:03;5.40;99.90
23815;DHT22;12088;53.078;8.720;2022-09-21T04:41:28;5.40;99.90
23815;DHT22;12088;53.078;8.720;2022-09-21T04:43:54;5.30;99.90
23815;DHT22;12088;53.078;8.720;2022-09-21T04:46:19;5.10;99.90
23815;DHT22;12088;53.078;8.720;2022-09-21T04:48:45;5.10;99.90
23815;DHT22;12088;53.078;8.720;2022-09-21T04:51:12;5.00;99.90
23815;DHT22;12088;53.078;8.720;2022-09-21T04:53:39;5.10;99.90
23815;DHT22;12088;53.078;8.720;2022-09-21T04:56:07;5.10;99.90
23815;DHT22;12088;53.078;8.720;2022-09-21T04:58:33;4.90;99.90
23815;DHT22;12088;53.078;8.720;2022-09-21T05:00:59;4.80;99.90
23815;DHT22;12088;53.078;8.720;2022-09-21T05:03:25;4.60;99.90
23815;DHT22;12088;53.078;8.720;2022-09-21T05:05:54;4.50;99.90
23815;DHT22;12088;53.078;8.720;2022-09-21T05:08:21;4.60;99.90
23815;DHT22;12088;53.078;8.720;2022-09-21T05:11:09;4.60;99.90
23815;DHT22;12088;53.078;8.720;2022-09-21T05:13:37;4.70;99.90
23815;DHT22;12088;53.078;8.720;2022-09-21T05:16:04;4.80;99.90
23815;DHT22;12088;53.078;8.720;2022-09-21T05:18:29;4.80;99.90
23815;DHT22;12088;53.078;8.720;2022-09-21T05:20:59;4.80;99.90
23815;DHT22;12088;53.078;8.720;2022-09-21T05:23:26;4.80;99.90
23815;DHT22;12088;53.078;8.720;2022-09-21T05:25:54;4.80;99.90
23815;DHT22;12088;53.078;8.720;2022-09-21T05:28:19;5.00;99.90
23815;DHT22;12088;53.078;8.720;2022-09-21T05:30:57;5.10;99.90
23815;DHT22;12088;53.078;8.720;2022-09-21T05:33:27;5.10;99.90
23815;DHT22;12088;53.078;8.720;2022-09-21T05:36:10;5.20;99.90
23815;DHT22;12088;53.078;8.720;2022-09-21T05:38:45;5.30;99.90
23815;DHT22;12088;53.078;8.720;2022-09-21T05:41:10;5.40;99.90
23815;DHT22;12088;53.078;8.720;2022-09-21T05:43:36;5.40;99.90
23815;DHT22;12088;53.078;8.720;2022-09-21T05:46:06;5.50;99.90
23815;DHT22;12088;53.078;8.720;2022-09-21T05:48:40;5.50;99.90
23815;DHT22;12088;53.078;8.720;2022-09-21T05:54:11;5.60;99.90
23815;DHT22;12088;53.078;8.720;2022-09-21T06:02:47;5.80;99.90
23815;DHT22;12088;53.078;8.720;2022-09-21T06:05:15;5.90;99.90
23815;DHT22;12088;53.078;8.720;2022-09-21T06:07:41;6.00;99.90
23815;DHT22;12088;53.078;8.720;2022-09-21T06:10:08;6.10;99.90
23815;DHT22;12088;53.078;8.720;2022-09-21T06:12:34;6.30;99.90
23815;DHT22;12088;53.078;8.720;2022-09-21T06:14:59;6.30;99.90
23815;DHT22;12088;53.078;8.720;2022-09-21T06:17:25;6.40;99.90
23815;DHT22;12088;53.078;8.720;2022-09-21T06:19:52;6.40;99.90
23815;DHT22;12088;53.078;8.720;2022-09-21T06:22:17;6.50;99.90
23815;DHT22;12088;53.078;8.720;2022-09-21T06:24:43;6.60;99.90
23815;DHT22;12088;53.078;8.720;2022-09-21T06:27:08;6.60;99.90
23815;DHT22;12088;53.078;8.720;2022-09-21T06:29:34;6.70;99.90
23815;DHT22;12088;53.078;8.720;2022-09-21T06:32:04;6.70;99.90
23815;DHT22;12088;53.078;8.720;2022-09-21T06:34:29;6.80;99.90
23815;DHT22;12088;53.078;8.720;2022-09-21T06:36:55;6.80;99.90
23815;DHT22;12088;53.078;8.720;2022-09-21T06:39:21;6.90;99.90
23815;DHT22;12088;53.078;8.720;2022-09-21T06:41:46;7.00;99.90
23815;DHT22;12088;53.078;8.720;2022-09-21T06:44:12;7.10;99.90
23815;DHT22;12088;53.078;8.720;2022-09-21T06:46:38;7.10;99.90
23815;DHT22;12088;53.078;8.720;2022-09-21T06:49:03;7.20;99.90
23815;DHT22;12088;53.078;8.720;2022-09-21T06:51:29;7.30;99.90
23815;DHT22;12088;53.078;8.720;2022-09-21T06:53:55;7.50;99.90
23815;DHT22;12088;53.078;8.720;2022-09-21T06:56:21;7.50;99.90
23815;DHT22;12088;53.078;8.720;2022-09-21T06:58:46;7.60;99.90
23815;DHT22;12088;53.078;8.720;2022-09-21T07:01:13;7.70;99.90
23815;DHT22;12088;53.078;8.720;2022-09-21T07:03:40;7.80;99.90
23815;DHT22;12088;53.078;8.720;2022-09-21T07:06:07;7.90;99.90
23815;DHT22;12088;53.078;8.720;2022-09-21T07:08:34;8.00;99.90
23815;DHT22;12088;53.078;8.720;2022-09-21T07:11:00;8.10;99.90
23815;DHT22;12088;53.078;8.720;2022-09-21T07:13:27;8.20;99.90
23815;DHT22;12088;53.078;8.720;2022-09-21T07:15:53;8.30;99.90
23815;DHT22;12088;53.078;8.720;2022-09-21T07:18:19;8.40;99.90
23815;DHT22;12088;53.078;8.720;2022-09-21T07:20:45;8.50;99.90
23815;DHT22;12088;53.078;8.720;2022-09-21T07:23:17;8.60;99.90
23815;DHT22;12088;53.078;8.720;2022-09-21T07:25:46;8.70;99.90
23815;DHT22;12088;53.078;8.720;2022-09-21T07:28:17;8.90;99.90
23815;DHT22;12088;53.078;8.720;2022-09-21T07:30:43;9.00;99.90
23815;DHT22;12088;53.078;8.720;2022-09-21T07:33:08;9.10;99.90
23815;DHT22;12088;53.078;8.720;2022-09-21T07:35:34;9.20;99.90
23815;DHT22;12088;53.078;8.720;2022-09-21T07:38:02;9.30;99.90
23815;DHT22;12088;53.078;8.720;2022-09-21T07:40:28;9.40;99.90
23815;DHT22;12088;53.078;8.720;2022-09-21T07:43:00;9.50;99.90
23815;DHT22;12088;53.078;8.720;2022-09-21T07:45:27;9.60;99.90
23815;DHT22;12088;53.078;8.720;2022-09-21T07:47:53;9.70;99.90
23815;DHT22;12088;53.078;8.720;2022-09-21T07:50:19;9.80;99.90
23815;DHT22;12088;53.078;8.720;2022-09-21T07:52:45;9.90;99.90
23815;DHT22;12088;53.078;8.720;2022-09-21T07:55:10;10.00;99.90
23815;DHT22;12088;53.078;8.720;2022-09-21T07:57:36;10.20;99.90
23815;DHT22;12088;53.078;8.720;2022-09-21T08:00:20;10.30;99.90
23815;DHT22;12088;53.078;8.720;2022-09-21T08:02:46;10.50;99.90
23815;DHT22;12088;53.078;8.720;2022-09-21T08:05:12;10.70;99.90
23815;DHT22;12088;53.078;8.720;2022-09-21T08:07:37;10.90;99.90
23815;DHT22;12088;53.078;8.720;2022-09-21T08:10:03;11.20;99.90
23815;DHT22;12088;53.078;8.720;2022-09-21T08:12:29;11.50;99.90
23815;DHT22;12088;53.078;8.720;2022-09-21T08:14:54;11.80;99.90
23815;DHT22;12088;53.078;8.720;2022-09-21T08:17:20;12.20;99.90
23815;DHT22;12088;53.078;8.720;2022-09-21T08:19:45;12.60;99.90
23815;DHT22;12088;53.078;8.720;2022-09-21T08:22:11;13.00;99.90
23815;DHT22;12088;53.078;8.720;2022-09-21T08:24:38;13.50;99.90
23815;DHT22;12088;53.078;8.720;2022-09-21T08:27:05;13.70;99.90
23815;DHT22;12088;53.078;8.720;2022-09-21T08:29:32;14.20;99.90
23815;DHT22;12088;53.078;8.720;2022-09-21T08:31:58;14.70;99.90
23815;DHT22;12088;53.078;8.720;2022-09-21T08:34:23;15.00;99.90
23815;DHT22;12088;53.078;8.720;2022-09-21T08:36:49;15.50;99.90
23815;DHT22;12088;53.078;8.720;2022-09-21T08:39:14;16.00;99.90
23815;DHT22;12088;53.078;8.720;2022-09-21T08:42:12;16.20;99.90
23815;DHT22;12088;53.078;8.720;2022-09-21T08:44:47;16.50;99.90
23815;DHT22;12088;53.078;8.720;2022-09-21T08:47:18;16.90;99.90
23815;DHT22;12088;53.078;8.720;2022-09-21T08:49:51;17.10;99.90
23815;DHT22;12088;53.078;8.720;2022-09-21T08:52:20;17.70;99.90
23815;DHT22;12088;53.078;8.720;2022-09-21T08:55:18;18.20;99.90
23815;DHT22;12088;53.078;8.720;2022-09-21T08:57:44;18.50;99.90
23815;DHT22;12088;53.078;8.720;2022-09-21T09:00:15;18.50;99.90
23815;DHT22;12088;53.078;8.720;2022-09-21T09:03:08;18.80;99.90
23815;DHT22;12088;53.078;8.720;2022-09-21T09:05:48;19.60;99.90
23815;DHT22;12088;53.078;8.720;2022-09-21T09:11:41;20.50;99.90
23815;DHT22;12088;53.078;8.720;2022-09-21T09:22:30;24.70;99.90
23815;DHT22;12088;53.078;8.720;2022-09-21T09:25:01;25.50;99.90
23815;DHT22;12088;53.078;8.720;2022-09-21T09:27:38;25.20;99.90
23815;DHT22;12088;53.078;8.720;2022-09-21T09:32:45;23.50;99.90
23815;DHT22;12088;53.078;8.720;2022-09-21T09:38:00;24.70;99.90
23815;DHT22;12088;53.078;8.720;2022-09-21T09:46:28;26.30;99.90
23815;DHT22;12088;53.078;8.720;2022-09-21T09:51:38;26.90;99.90
23815;DHT22;12088;53.078;8.720;2022-09-21T09:54:07;26.70;99.90
23815;DHT22;12088;53.078;8.720;2022-09-21T09:56:37;27.30;99.90
23815;DHT22;12088;53.078;8.720;2022-09-21T09:59:07;26.20;99.90
23815;DHT22;12088;53.078;8.720;2022-09-21T10:01:38;25.60;99.90
23815;DHT22;12088;53.078;8.720;2022-09-21T10:04:08;25.70;99.90
23815;DHT22;12088;53.078;8.720;2022-09-21T10:06:34;26.30;99.90
23815;DHT22;12088;53.078;8.720;2022-09-21T10:09:00;26.50;99.90
23815;DHT22;12088;53.078;8.720;2022-09-21T10:11:41;27.80;99.90
23815;DHT22;12088;53.078;8.720;2022-09-21T10:14:09;29.00;99.90
23815;DHT22;12088;53.078;8.720;2022-09-21T10:16:40;28.50;99.90
23815;DHT22;12088;53.078;8.720;2022-09-21T10:19:14;28.40;99.90
23815;DHT22;12088;53.078;8.720;2022-09-21T10:21:42;28.50;99.90
23815;DHT22;12088;53.078;8.720;2022-09-21T10:24:28;27.80;99.90
23815;DHT22;12088;53.078;8.720;2022-09-21T10:27:00;27.40;99.90
23815;DHT22;12088;53.078;8.720;2022-09-21T10:29:30;28.70;99.90
23815;DHT22;12088;53.078;8.720;2022-09-21T10:32:07;28.50;99.90
23815;DHT22;12088;53.078;8.720;2022-09-21T10:37:32;29.50;99.90
23815;DHT22;12088;53.078;8.720;2022-09-21T10:39:59;30.20;99.90
23815;DHT22;12088;53.078;8.720;2022-09-21T10:42:25;30.50;99.90
23815;DHT22;12088;53.078;8.720;2022-09-21T10:45:02;30.60;99.90
23815;DHT22;12088;53.078;8.720;2022-09-21T10:47:40;30.00;99.90
23815;DHT22;12088;53.078;8.720;2022-09-21T10:55:40;29.50;96.80
23815;DHT22;12088;53.078;8.720;2022-09-21T10:58:11;28.60;98.20
23815;DHT22;12088;53.078;8.720;2022-09-21T11:00:46;28.90;97.40
23815;DHT22;12088;53.078;8.720;2022-09-21T11:03:37;29.10;99.90
23815;DHT22;12088;53.078;8.720;2022-09-21T11:06:23;28.20;99.20
23815;DHT22;12088;53.078;8.720;2022-09-21T11:09:18;28.20;99.30
23815;DHT22;12088;53.078;8.720;2022-09-21T11:20:42;32.40;97.20
23815;DHT22;12088;53.078;8.720;2022-09-21T11:28:45;33.00;95.50
23815;DHT22;12088;53.078;8.720;2022-09-21T11:31:36;32.60;96.20
23815;DHT22;12088;53.078;8.720;2022-09-21T11:39:43;31.00;95.70
23815;DHT22;12088;53.078;8.720;2022-09-21T11:50:17;32.50;93.80
23815;DHT22;12088;53.078;8.720;2022-09-21T11:53:14;32.00;93.90
23815;DHT22;12088;53.078;8.720;2022-09-21T11:58:54;33.20;95.80
23815;DHT22;12088;53.078;8.720;2022-09-21T12:10:23;33.70;92.30
23815;DHT22;12088;53.078;8.720;2022-09-21T12:12:57;32.40;91.50
23815;DHT22;12088;53.078;8.720;2022-09-21T12:18:40;30.50;91.30
23815;DHT22;12088;53.078;8.720;2022-09-21T12:20:55;30.50;94.10
23815;DHT22;12088;53.078;8.720;2022-09-21T12:23:36;31.10;93.80
23815;DHT22;12088;53.078;8.720;2022-09-21T12:26:03;31.00;86.50
23815;DHT22;12088;53.078;8.720;2022-09-21T12:28:35;30.70;95.30
23815;DHT22;12088;53.078;8.720;2022-09-21T12:31:13;31.50;91.70
23815;DHT22;12088;53.078;8.720;2022-09-21T12:33:57;33.30;85.90
23815;DHT22;12088;53.078;8.720;2022-09-21T12:39:48;32.20;86.20
23815;DHT22;12088;53.078;8.720;2022-09-21T12:42:48;31.30;83.50
23815;DHT22;12088;53.078;8.720;2022-09-21T12:45:20;32.20;93.40
23815;DHT22;12088;53.078;8.720;2022-09-21T12:50:54;33.20;90.00
23815;DHT22;12088;53.078;8.720;2022-09-21T12:53:26;33.40;81.60
23815;DHT22;12088;53.078;8.720;2022-09-21T12:56:04;32.60;87.70
23815;DHT22;12088;53.078;8.720;2022-09-21T12:58:46;33.90;83.60
23815;DHT22;12088;53.078;8.720;2022-09-21T13:07:05;32.40;90.30
23815;DHT22;12088;53.078;8.720;2022-09-21T13:09:39;32.30;88.50
23815;DHT22;12088;53.078;8.720;2022-09-21T13:12:30;32.00;90.10
23815;DHT22;12088;53.078;8.720;2022-09-21T13:15:03;32.20;89.90
23815;DHT22;12088;53.078;8.720;2022-09-21T13:17:31;32.40;90.50
23815;DHT22;12088;53.078;8.720;2022-09-21T13:20:19;31.90;90.30
23815;DHT22;12088;53.078;8.720;2022-09-21T13:22:46;32.50;86.80
23815;DHT22;12088;53.078;8.720;2022-09-21T13:25:24;32.10;83.10
23815;DHT22;12088;53.078;8.720;2022-09-21T13:30:40;32.10;85.20
23815;DHT22;12088;53.078;8.720;2022-09-21T13:54:51;30.00;87.30
23815;DHT22;12088;53.078;8.720;2022-09-21T13:57:26;30.10;84.40
23815;DHT22;12088;53.078;8.720;2022-09-21T14:02:40;28.30;87.40
23815;DHT22;12088;53.078;8.720;2022-09-21T14:05:42;29.80;87.30
23815;DHT22;12088;53.078;8.720;2022-09-21T14:11:03;29.70;90.80
23815;DHT22;12088;53.078;8.720;2022-09-21T14:13:39;29.20;84.70
23815;DHT22;12088;53.078;8.720;2022-09-21T14:32:23;21.90;98.60
23815;DHT22;12088;53.078;8.720;2022-09-21T14:34:55;21.60;97.50
23815;DHT22;12088;53.078;8.720;2022-09-21T14:37:31;21.60;96.80
23815;DHT22;12088;53.078;8.720;2022-09-21T14:40:00;21.30;98.40
23815;DHT22;12088;53.078;8.720;2022-09-21T14:42:28;21.30;98.50
23815;DHT22;12088;53.078;8.720;2022-09-21T14:45:01;21.30;99.20
23815;DHT22;12088;53.078;8.720;2022-09-21T14:47:40;21.10;95.20
23815;DHT22;12088;53.078;8.720;2022-09-21T14:50:30;21.20;96.40
23815;DHT22;12088;53.078;8.720;2022-09-21T15:04:28;20.00;99.90
23815;DHT22;12088;53.078;8.720;2022-09-21T15:07:04;19.80;99.90
23815;DHT22;12088;53.078;8.720;2022-09-21T15:18:20;19.10;99.90
23815;DHT22;12088;53.078;8.720;2022-09-21T15:21:01;19.00;99.90
23815;DHT22;12088;53.078;8.720;2022-09-21T15:23:38;18.80;99.90
23815;DHT22;12088;53.078;8.720;2022-09-21T15:26:13;18.60;98.70
23815;DHT22;12088;53.078;8.720;2022-09-21T15:28:49;18.50;99.20
23815;DHT22;12088;53.078;8.720;2022-09-21T15:31:17;18.40;99.90
23815;DHT22;12088;53.078;8.720;2022-09-21T15:33:44;18.40;99.90
23815;DHT22;12088;53.078;8.720;2022-09-21T15:36:18;18.30;99.90
23815;DHT22;12088;53.078;8.720;2022-09-21T15:38:47;18.20;99.90
23815;DHT22;12088;53.078;8.720;2022-09-21T15:41:40;18.20;99.90
23815;DHT22;12088;53.078;8.720;2022-09-21T15:44:16;18.10;99.90
23815;DHT22;12088;53.078;8.720;2022-09-21T15:46:44;17.90;99.90
23815;DHT22;12088;53.078;8.720;2022-09-21T15:49:12;17.90;99.90
23815;DHT22;12088;53.078;8.720;2022-09-21T15:51:42;17.80;99.90
23815;DHT22;12088;53.078;8.720;2022-09-21T15:54:17;17.70;99.90
23815;DHT22;12088;53.078;8.720;2022-09-21T15:56:45;17.70;99.90
23815;DHT22;12088;53.078;8.720;2022-09-21T15:59:18;17.60;99.90
23815;DHT22;12088;53.078;8.720;2022-09-21T16:01:51;17.50;99.90
23815;DHT22;12088;53.078;8.720;2022-09-21T16:04:20;17.40;99.90
23815;DHT22;12088;53.078;8.720;2022-09-21T16:07:03;17.20;99.90
23815;DHT22;12088;53.078;8.720;2022-09-21T16:09:44;17.10;99.90
23815;DHT22;12088;53.078;8.720;2022-09-21T16:12:41;17.00;99.90
23815;DHT22;12088;53.078;8.720;2022-09-21T16:15:26;17.00;99.90
23815;DHT22;12088;53.078;8.720;2022-09-21T16:17:58;17.00;99.90
23815;DHT22;12088;53.078;8.720;2022-09-21T16:20:45;16.80;99.90
23815;DHT22;12088;53.078;8.720;2022-09-21T16:23:18;16.90;99.90
23815;DHT22;12088;53.078;8.720;2022-09-21T16:25:52;16.70;99.90
23815;DHT22;12088;53.078;8.720;2022-09-21T16:30:55;16.60;99.90
23815;DHT22;12088;53.078;8.720;2022-09-21T16:38:43;16.30;99.90
23815;DHT22;12088;53.078;8.720;2022-09-21T16:41:11;16.20;99.90
23815;DHT22;12088;53.078;8.720;2022-09-21T16:43:38;16.10;99.90
23815;DHT22;12088;53.078;8.720;2022-09-21T16:46:07;16.00;99.90
23815;DHT22;12088;53.078;8.720;2022-09-21T16:48:33;15.80;99.90
23815;DHT22;12088;53.078;8.720;2022-09-21T16:50:59;15.70;99.90
23815;DHT22;12088;53.078;8.720;2022-09-21T16:53:25;15.50;99.90
23815;DHT22;12088;53.078;8.720;2022-09-21T16:55:51;15.40;99.90
23815;DHT22;12088;53.078;8.720;2022-09-21T16:58:18;15.30;99.90
23815;DHT22;12088;53.078;8.720;2022-09-21T17:00:51;15.10;99.90
23815;DHT22;12088;53.078;8.720;2022-09-21T17:03:18;15.10;99.90
23815;DHT22;12088;53.078;8.720;2022-09-21T17:05:44;15.00;99.90
23815;DHT22;12088;53.078;8.720;2022-09-21T17:08:10;14.90;99.90
23815;DHT22;12088;53.078;8.720;2022-09-21T17:10:39;14.80;99.90
23815;DHT22;12088;53.078;8.720;2022-09-21T17:13:05;14.60;99.90
23815;DHT22;12088;53.078;8.720;2022-09-21T17:15:33;14.60;99.90
23815;DHT22;12088;53.078;8.720;2022-09-21T17:18:00;14.40;99.90
23815;DHT22;12088;53.078;8.720;2022-09-21T17:20:39;14.30;99.90
23815;DHT22;12088;53.078;8.720;2022-09-21T17:23:06;14.20;99.90
23815;DHT22;12088;53.078;8.720;2022-09-21T17:25:33;14.00;99.90
23815;DHT22;12088;53.078;8.720;2022-09-21T17:28:03;13.80;99.90
23815;DHT22;12088;53.078;8.720;2022-09-21T17:30:35;13.70;99.90
23815;DHT22;12088;53.078;8.720;2022-09-21T17:33:01;13.50;99.90
23815;DHT22;12088;53.078;8.720;2022-09-21T17:35:32;13.40;99.90
23815;DHT22;12088;53.078;8.720;2022-09-21T17:37:58;13.30;99.90
23815;DHT22;12088;53.078;8.720;2022-09-21T17:40:24;13.20;99.90
23815;DHT22;12088;53.078;8.720;2022-09-21T17:42:50;13.10;99.90
23815;DHT22;12088;53.078;8.720;2022-09-21T17:48:03;12.80;99.90
23815;DHT22;12088;53.078;8.720;2022-09-21T17:50:30;12.70;99.90
23815;DHT22;12088;53.078;8.720;2022-09-21T17:52:57;12.60;99.90
23815;DHT22;12088;53.078;8.720;2022-09-21T17:55:50;12.60;99.90
23815;DHT22;12088;53.078;8.720;2022-09-21T18:03:30;12.40;99.90
23815;DHT22;12088;53.078;8.720;2022-09-21T18:05:56;12.30;99.90
23815;DHT22;12088;53.078;8.720;2022-09-21T18:08:30;12.20;99.90
23815;DHT22;12088;53.078;8.720;2022-09-21T18:16:26;12.10;99.90
23815;DHT22;12088;53.078;8.720;2022-09-21T18:19:04;12.00;99.90
23815;DHT22;12088;53.078;8.720;2022-09-21T18:21:40;12.00;99.90
23815;DHT22;12088;53.078;8.720;2022-09-21T18:24:30;12.00;99.90
23815;DHT22;12088;53.078;8.720;2022-09-21T18:26:56;11.90;99.90
23815;DHT22;12088;53.078;8.720;2022-09-21T18:29:30;11.80;99.90
23815;DHT22;12088;53.078;8.720;2022-09-21T18:37:43;11.60;99.90
23815;DHT22;12088;53.078;8.720;2022-09-21T18:43:06;11.50;99.90
23815;DHT22;12088;53.078;8.720;2022-09-21T18:45:45;11.40;99.90
23815;DHT22;12088;53.078;8.720;2022-09-21T18:51:53;11.40;99.90
23815;DHT22;12088;53.078;8.720;2022-09-21T18:54:22;11.40;99.90
23815;DHT22;12088;53.078;8.720;2022-09-21T18:56:51;11.40;99.90
23815;DHT22;12088;53.078;8.720;2022-09-21T18:59:18;11.30;99.90
23815;DHT22;12088;53.078;8.720;2022-09-21T19:01:45;11.20;99.90
23815;DHT22;12088;53.078;8.720;2022-09-21T19:04:11;11.10;99.90
23815;DHT22;12088;53.078;8.720;2022-09-21T19:12:45;11.00;99.90
23815;DHT22;12088;53.078;8.720;2022-09-21T19:15:20;10.90;99.90
23815;DHT22;12088;53.078;8.720;2022-09-21T19:18:14;10.90;99.90
23815;DHT22;12088;53.078;8.720;2022-09-21T19:21:04;11.00;99.90
23815;DHT22;12088;53.078;8.720;2022-09-21T19:24:12;11.20;99.90
23815;DHT22;12088;53.078;8.720;2022-09-21T19:31:45;11.00;99.90
23815;DHT22;12088;53.078;8.720;2022-09-21T19:34:16;10.90;99.90
23815;DHT22;12088;53.078;8.720;2022-09-21T19:36:43;10.80;99.90
23815;DHT22;12088;53.078;8.720;2022-09-21T19:39:10;10.70;99.90
23815;DHT22;12088;53.078;8.720;2022-09-21T19:42:03;10.60;99.90
23815;DHT22;12088;53.078;8.720;2022-09-21T19:49:52;10.30;99.90